createdAt,value
2023-04-27T00:00:49.502Z,1.39
2023-04-27T00:03:52.212Z,1.36
2023-04-27T00:06:54.182Z,1.34
2023-04-27T00:09:56.257Z,1.33
2023-04-27T00:12:58.484Z,1.35
2023-04-27T00:16:01.267Z,1.37
2023-04-27T00:19:03.268Z,1.43
2023-04-27T00:22:05.025Z,1.49
2023-04-27T00:25:07.480Z,1.51
2023-04-27T00:28:10.173Z,1.49
2023-04-27T00:31:11.860Z,1.45
2023-04-27T00:34:13.598Z,1.43
2023-04-27T00:37:15.908Z,1.43
2023-04-27T00:40:17.669Z,1.44
2023-04-27T00:43:19.160Z,1.47
2023-04-27T00:46:20.918Z,1.48
2023-04-27T00:49:22.647Z,1.48
2023-04-27T00:52:24.290Z,1.48
2023-04-27T00:55:26.110Z,1.47
2023-04-27T00:58:28.041Z,1.50
2023-04-27T01:01:30.665Z,1.50
2023-04-27T01:04:32.610Z,1.46
2023-04-27T01:07:38.169Z,1.45
2023-04-27T01:10:40.505Z,1.44
2023-04-27T01:13:42.262Z,1.42
2023-04-27T01:16:44.150Z,1.41
2023-04-27T01:19:45.710Z,1.40
2023-04-27T01:22:47.495Z,1.37
2023-04-27T01:25:49.049Z,1.36
2023-04-27T01:28:50.740Z,1.33
2023-04-27T01:31:52.295Z,1.29
2023-04-27T01:34:54.023Z,1.28
2023-04-27T01:37:57.168Z,1.29
2023-04-27T01:40:58.789Z,1.29
2023-04-27T01:44:00.591Z,1.32
2023-04-27T01:47:02.126Z,1.36
2023-04-27T01:50:04.774Z,1.40
2023-04-27T01:53:06.582Z,1.42
2023-04-27T01:56:08.358Z,1.43
2023-04-27T01:59:10.050Z,1.43
2023-04-27T02:02:11.642Z,1.42
2023-04-27T02:05:13.289Z,1.40
2023-04-27T02:08:15.190Z,1.37
2023-04-27T02:11:16.840Z,1.36
2023-04-27T02:14:18.494Z,1.35
2023-04-27T02:17:20.296Z,1.32
2023-04-27T02:20:21.830Z,1.28
2023-04-27T02:23:23.429Z,1.24
2023-04-27T02:26:25.089Z,1.20
2023-04-27T02:29:30.609Z,1.18
2023-04-27T02:32:33.120Z,1.13
2023-04-27T02:35:34.856Z,1.11
2023-04-27T02:38:36.683Z,1.11
2023-04-27T02:41:38.702Z,1.07
2023-04-27T02:44:40.528Z,1.01
2023-04-27T02:47:42.148Z,0.98
2023-04-27T02:50:44.685Z,0.97
2023-04-27T02:53:46.384Z,0.92
2023-04-27T02:56:48.269Z,0.87
2023-04-27T02:59:49.785Z,0.84
2023-04-27T03:02:51.712Z,0.80
2023-04-27T03:05:53.595Z,0.76
2023-04-27T03:08:55.236Z,0.69
2023-04-27T03:11:56.809Z,0.62
2023-04-27T03:14:58.448Z,0.65
2023-04-27T03:18:00.052Z,0.66
2023-04-27T03:21:08.974Z,0.67
2023-04-27T03:24:10.749Z,0.68
2023-04-27T03:27:12.369Z,0.68
2023-04-27T03:30:14.230Z,0.66
2023-04-27T03:33:15.821Z,0.63
2023-04-27T03:36:20.542Z,0.62
2023-04-27T03:39:22.649Z,0.67
2023-04-27T03:42:24.306Z,0.68
2023-04-27T03:45:29.221Z,0.68
2023-04-27T03:48:31.031Z,0.73
2023-04-27T03:51:32.862Z,0.75
2023-04-27T03:54:34.383Z,0.81
2023-04-27T03:57:36.109Z,0.82
2023-04-27T04:00:37.978Z,0.82
2023-04-27T04:03:39.761Z,0.84
2023-04-27T04:06:41.641Z,0.87
2023-04-27T04:09:46.718Z,0.84
2023-04-27T04:12:48.468Z,0.89
2023-04-27T04:15:50.307Z,0.93
2023-04-27T04:18:51.877Z,0.97
2023-04-27T04:21:53.537Z,1.06
2023-04-27T04:24:55.178Z,1.15
2023-04-27T04:27:56.806Z,1.23
2023-04-27T04:30:58.668Z,1.31
2023-04-27T04:34:01.415Z,1.38
2023-04-27T04:37:03.146Z,1.45
2023-04-27T04:40:05.519Z,1.50
2023-04-27T04:43:07.238Z,1.57
2023-04-27T04:46:08.982Z,1.68
2023-04-27T04:49:10.571Z,1.85
2023-04-27T04:52:12.863Z,2.05
2023-04-27T04:55:14.437Z,2.23
2023-04-27T04:58:16.246Z,2.36
2023-04-27T05:01:17.846Z,2.51
2023-04-27T05:04:19.730Z,2.68
2023-04-27T05:07:24.637Z,2.82
2023-04-27T05:10:26.815Z,3.13
2023-04-27T05:13:28.757Z,3.52
2023-04-27T05:16:30.734Z,3.98
2023-04-27T05:19:32.468Z,4.37
2023-04-27T05:22:34.147Z,4.52
2023-04-27T05:25:36.289Z,4.70
2023-04-27T05:28:38.197Z,4.82
2023-04-27T05:31:39.884Z,4.95
2023-04-27T05:34:41.562Z,5.30
2023-04-27T05:37:46.271Z,5.58
2023-04-27T05:40:47.959Z,5.87
2023-04-27T05:43:49.874Z,5.93
2023-04-27T05:46:51.485Z,5.98
2023-04-27T05:49:53.216Z,6.18
2023-04-27T05:52:54.862Z,6.51
2023-04-27T05:55:57.088Z,6.67
2023-04-27T05:58:59.993Z,6.88
2023-04-27T06:02:03.633Z,6.99
2023-04-27T06:05:05.722Z,7.03
2023-04-27T06:08:07.503Z,7.37
2023-04-27T06:11:09.139Z,7.67
2023-04-27T06:14:10.844Z,7.81
2023-04-27T06:17:12.410Z,7.94
2023-04-27T06:20:14.085Z,8.12
2023-04-27T06:23:15.662Z,8.16
2023-04-27T06:26:17.348Z,8.16
2023-04-27T06:29:18.911Z,8.10
2023-04-27T06:32:20.657Z,8.02
2023-04-27T06:35:22.457Z,7.92
2023-04-27T06:38:24.165Z,8.03
2023-04-27T06:41:27.065Z,8.19
2023-04-27T06:44:28.705Z,8.22
2023-04-27T06:47:30.506Z,8.34
2023-04-27T06:50:32.089Z,8.44
2023-04-27T06:53:34.075Z,8.57
2023-04-27T06:56:36.121Z,8.97
2023-04-27T06:59:37.904Z,9.35
2023-04-27T07:02:39.601Z,9.58
2023-04-27T07:05:41.469Z,10.02
2023-04-27T07:08:43.334Z,10.57
2023-04-27T07:11:45.122Z,10.69
2023-04-27T07:14:46.694Z,10.66
2023-04-27T07:17:48.547Z,10.63
2023-04-27T07:20:50.219Z,11.23
2023-04-27T07:23:53.459Z,11.58
2023-04-27T07:26:55.803Z,11.21
2023-04-27T07:29:57.501Z,11.24
2023-04-27T07:32:59.107Z,11.51
2023-04-27T07:36:01.726Z,11.78
2023-04-27T07:39:04.084Z,12.09
2023-04-27T07:42:05.742Z,12.60
2023-04-27T07:45:08.979Z,12.92
2023-04-27T07:48:10.626Z,13.07
2023-04-27T07:51:12.232Z,12.80
2023-04-27T07:54:13.940Z,12.24
2023-04-27T07:57:15.603Z,11.90
2023-04-27T08:00:17.464Z,11.44
2023-04-27T08:03:19.596Z,10.82
2023-04-27T08:06:22.099Z,10.39
2023-04-27T08:09:24.148Z,9.83
2023-04-27T08:12:25.789Z,9.41
2023-04-27T08:15:27.643Z,9.10
2023-04-27T08:18:29.571Z,8.83
2023-04-27T08:21:31.298Z,8.77
2023-04-27T08:24:33.036Z,8.81
2023-04-27T08:27:39.081Z,8.94
2023-04-27T08:30:43.822Z,8.74
2023-04-27T08:33:45.700Z,8.52
2023-04-27T08:36:47.326Z,8.36
2023-04-27T08:39:48.944Z,8.25
2023-04-27T08:42:58.517Z,8.20
2023-04-27T08:46:00.198Z,8.20
2023-04-27T08:49:02.201Z,8.26
2023-04-27T08:52:04.780Z,8.40
2023-04-27T08:55:07.590Z,8.58
2023-04-27T08:58:09.546Z,8.82
2023-04-27T09:01:11.431Z,8.88
2023-04-27T09:04:13.394Z,8.74
2023-04-27T09:07:17.345Z,8.57
2023-04-27T09:10:19.169Z,8.37
2023-04-27T09:13:20.919Z,8.24
2023-04-27T09:16:27.207Z,8.08
2023-04-27T09:19:30.564Z,7.66
2023-04-27T09:22:32.311Z,7.33
2023-04-27T09:25:34.271Z,7.13
2023-04-27T09:28:39.164Z,6.95
2023-04-27T09:31:41.060Z,6.86
2023-04-27T09:34:43.125Z,6.93
2023-04-27T09:37:44.893Z,7.11
2023-04-27T09:40:47.480Z,7.37
2023-04-27T09:43:49.175Z,7.57
2023-04-27T09:46:51.747Z,7.80
2023-04-27T09:49:53.505Z,8.09
2023-04-27T09:52:55.136Z,8.63
2023-04-27T09:56:13.712Z,9.73
2023-04-27T09:59:49.123Z,11.08
2023-04-27T10:03:09.257Z,12.09
2023-04-27T10:06:45.298Z,13.13
2023-04-27T10:09:49.040Z,14.11
2023-04-27T10:12:58.498Z,14.49
2023-04-27T10:16:15.264Z,14.65
2023-04-27T10:19:17.044Z,14.94
2023-04-27T10:22:18.712Z,14.72
2023-04-27T10:25:25.303Z,14.25
2023-04-27T10:28:26.911Z,13.33
2023-04-27T10:31:29.181Z,12.26
2023-04-27T10:34:34.971Z,11.35
2023-04-27T10:37:40.828Z,10.89
2023-04-27T10:40:44.715Z,10.63
2023-04-27T10:43:46.334Z,10.56
2023-04-27T10:46:55.526Z,10.74
2023-04-27T10:49:57.424Z,11.14
2023-04-27T10:53:06.844Z,11.59
2023-04-27T10:56:08.722Z,11.63
2023-04-27T10:59:10.787Z,11.19
2023-04-27T11:02:12.730Z,10.81
2023-04-27T11:05:19.497Z,10.60
2023-04-27T11:08:21.137Z,10.32
2023-04-27T11:11:23.178Z,10.20
2023-04-27T11:14:24.829Z,10.03
2023-04-27T11:17:30.189Z,9.82
2023-04-27T11:20:31.907Z,9.84
2023-04-27T11:23:33.867Z,9.96
2023-04-27T11:26:35.794Z,10.03
2023-04-27T11:29:38.568Z,10.12
2023-04-27T11:32:40.347Z,10.34
2023-04-27T11:35:42.090Z,10.50
2023-04-27T11:38:43.741Z,10.77
2023-04-27T11:41:45.504Z,11.19
2023-04-27T11:44:52.232Z,11.68
2023-04-27T11:47:54.058Z,11.85
2023-04-27T11:50:58.205Z,11.78
2023-04-27T11:54:06.793Z,11.84
2023-04-27T11:57:10.183Z,11.86
2023-04-27T12:00:12.153Z,11.61
2023-04-27T12:03:14.248Z,11.13
2023-04-27T12:06:32.148Z,10.61
2023-04-27T12:09:34.948Z,10.31
2023-04-27T12:12:36.646Z,10.24
2023-04-27T12:15:39.026Z,10.18
2023-04-27T12:18:41.323Z,10.25
2023-04-27T12:21:43.248Z,10.43
2023-04-27T12:24:44.889Z,10.74
2023-04-27T12:27:46.934Z,11.18
2023-04-27T12:30:48.585Z,11.52
2023-04-27T12:33:50.478Z,11.50
2023-04-27T12:36:52.365Z,11.86
2023-04-27T12:39:54.120Z,12.23
2023-04-27T12:42:55.735Z,12.63
2023-04-27T12:45:57.491Z,13.15
2023-04-27T12:48:59.261Z,12.92
2023-04-27T12:52:01.053Z,12.25
2023-04-27T12:55:02.803Z,11.78
2023-04-27T12:58:04.447Z,11.18
2023-04-27T13:01:06.041Z,10.73
2023-04-27T13:04:07.886Z,10.42
2023-04-27T13:07:09.867Z,10.25
2023-04-27T13:10:11.564Z,10.15
2023-04-27T13:13:13.293Z,9.97
2023-04-27T13:16:14.991Z,9.72
2023-04-27T13:19:16.659Z,9.51
2023-04-27T13:22:18.404Z,9.33
2023-04-27T13:25:20.013Z,9.38
2023-04-27T13:28:21.682Z,9.49
2023-04-27T13:31:23.422Z,9.55
2023-04-27T13:34:25.083Z,9.64
2023-04-27T13:37:26.682Z,9.75
2023-04-27T13:40:29.380Z,9.92
2023-04-27T13:43:31.191Z,10.01
2023-04-27T13:46:32.838Z,10.23
2023-04-27T13:49:34.743Z,10.31
2023-04-27T13:52:37.696Z,11.14
2023-04-27T13:55:39.386Z,12.15
2023-04-27T13:58:41.133Z,13.01
2023-04-27T14:01:42.841Z,13.89
2023-04-27T14:04:44.587Z,14.58
2023-04-27T14:07:46.193Z,14.66
2023-04-27T14:10:48.341Z,13.97
2023-04-27T14:13:50.044Z,12.96
2023-04-27T14:16:53.030Z,12.80
2023-04-27T14:19:54.735Z,12.18
2023-04-27T14:22:58.390Z,11.48
2023-04-27T14:26:00.688Z,10.97
2023-04-27T14:29:02.326Z,10.70
2023-04-27T14:32:04.199Z,10.45
2023-04-27T14:35:06.314Z,10.28
2023-04-27T14:38:08.216Z,10.04
2023-04-27T14:41:09.871Z,9.89
2023-04-27T14:44:11.520Z,9.76
2023-04-27T14:47:13.242Z,9.68
2023-04-27T14:50:15.031Z,9.58
2023-04-27T14:53:16.700Z,9.43
2023-04-27T14:56:18.521Z,9.33
2023-04-27T14:59:20.174Z,9.21
2023-04-27T15:02:21.824Z,9.08
2023-04-27T15:05:23.414Z,8.94
2023-04-27T15:08:25.110Z,8.90
2023-04-27T15:11:26.777Z,8.88
2023-04-27T15:14:28.626Z,8.90
2023-04-27T15:17:30.371Z,8.96
2023-04-27T15:20:32.011Z,9.07
2023-04-27T15:23:33.714Z,9.24
2023-04-27T15:26:35.382Z,9.46
2023-04-27T15:29:37.470Z,10.15
2023-04-27T15:32:39.267Z,10.54
2023-04-27T15:35:41.026Z,10.67
2023-04-27T15:38:42.644Z,10.62
2023-04-27T15:41:44.329Z,10.65
2023-04-27T15:44:46.031Z,10.61
2023-04-27T15:47:47.902Z,10.52
2023-04-27T15:50:49.652Z,10.36
2023-04-27T15:53:51.417Z,10.18
2023-04-27T15:56:53.055Z,10.08
2023-04-27T15:59:54.746Z,9.94
2023-04-27T16:02:56.592Z,9.67
2023-04-27T16:05:58.442Z,9.40
2023-04-27T16:09:00.871Z,9.32
2023-04-27T16:12:02.626Z,9.35
2023-04-27T16:15:04.650Z,9.24
2023-04-27T16:18:06.310Z,9.11
2023-04-27T16:21:08.048Z,8.97
2023-04-27T16:24:09.705Z,8.85
2023-04-27T16:27:11.507Z,8.75
2023-04-27T16:30:13.383Z,8.69
2023-04-27T16:33:15.563Z,8.61
2023-04-27T16:36:17.231Z,8.43
2023-04-27T16:39:18.847Z,8.20
2023-04-27T16:42:20.771Z,8.04
2023-04-27T16:45:22.448Z,7.96
2023-04-27T16:48:24.101Z,7.88
2023-04-27T16:51:25.699Z,7.96
2023-04-27T16:54:27.313Z,8.12
2023-04-27T16:57:28.997Z,8.24
2023-04-27T17:00:30.617Z,8.33
2023-04-27T17:03:32.306Z,8.31
2023-04-27T17:06:34.022Z,8.25
2023-04-27T17:09:35.837Z,8.12
2023-04-27T17:12:37.961Z,7.96
2023-04-27T17:15:39.697Z,7.85
2023-04-27T17:18:41.879Z,7.78
2023-04-27T17:21:43.659Z,7.70
2023-04-27T17:24:45.276Z,7.63
2023-04-27T17:27:46.959Z,7.61
2023-04-27T17:30:48.828Z,7.42
2023-04-27T17:33:50.480Z,7.17
2023-04-27T17:36:52.194Z,6.95
2023-04-27T17:39:53.784Z,6.78
2023-04-27T17:42:55.470Z,6.56
2023-04-27T17:45:56.948Z,6.31
2023-04-27T17:48:58.724Z,6.17
2023-04-27T17:52:00.329Z,6.05
2023-04-27T17:55:02.006Z,5.89
2023-04-27T17:58:03.720Z,5.69
2023-04-27T18:01:07.068Z,5.58
2023-04-27T18:04:08.863Z,5.50
2023-04-27T18:07:10.573Z,5.38
2023-04-27T18:10:12.244Z,5.20
2023-04-27T18:13:14.020Z,5.12
2023-04-27T18:16:15.671Z,5.06
2023-04-27T18:19:17.641Z,4.91
2023-04-27T18:22:19.472Z,4.77
2023-04-27T18:25:21.301Z,4.57
2023-04-27T18:28:22.959Z,4.38
2023-04-27T18:31:24.525Z,4.29
2023-04-27T18:34:26.168Z,4.19
2023-04-27T18:37:28.416Z,4.07
2023-04-27T18:40:30.536Z,3.88
2023-04-27T18:43:34.640Z,3.71
2023-04-27T18:46:36.284Z,3.60
2023-04-27T18:49:37.781Z,3.53
2023-04-27T18:52:39.701Z,3.44
2023-04-27T18:55:41.452Z,3.31
2023-04-27T18:58:42.952Z,3.23
2023-04-27T19:01:44.777Z,3.16
2023-04-27T19:04:56.866Z,3.10
2023-04-27T19:08:03.708Z,3.01
2023-04-27T19:11:05.314Z,2.95
2023-04-27T19:14:07.127Z,2.91
2023-04-27T19:17:08.685Z,2.84
2023-04-27T19:20:10.876Z,2.75
2023-04-27T19:23:12.661Z,2.68
2023-04-27T19:26:14.578Z,2.58
2023-04-27T19:29:16.724Z,2.60
2023-04-27T19:32:19.284Z,2.51
2023-04-27T19:35:21.103Z,2.42
2023-04-27T19:38:22.866Z,2.17
2023-04-27T19:41:24.458Z,1.99
2023-04-27T19:44:26.133Z,1.85
2023-04-27T19:47:27.737Z,1.81
2023-04-27T19:50:29.410Z,1.80
2023-04-27T19:53:31.099Z,1.76
2023-04-27T19:56:32.730Z,1.68
2023-04-27T19:59:34.338Z,1.57
2023-04-27T20:02:36.162Z,1.48
2023-04-27T20:05:38.476Z,1.45
2023-04-27T20:08:40.283Z,1.42
2023-04-27T20:11:42.015Z,1.36
2023-04-27T20:14:43.562Z,1.27
2023-04-27T20:17:45.305Z,1.21
2023-04-27T20:20:46.861Z,1.13
2023-04-27T20:23:48.785Z,1.11
2023-04-27T20:26:50.603Z,1.08
2023-04-27T20:29:52.198Z,1.01
2023-04-27T20:32:53.948Z,0.97
2023-04-27T20:35:58.687Z,0.99
2023-04-27T20:39:02.744Z,1.00
2023-04-27T20:42:04.446Z,0.98
2023-04-27T20:45:07.048Z,0.95
2023-04-27T20:48:08.733Z,0.93
2023-04-27T20:51:10.479Z,0.91
2023-04-27T20:54:12.121Z,0.81
2023-04-27T20:57:14.080Z,0.69
2023-04-27T21:00:16.369Z,0.60
2023-04-27T21:03:18.222Z,0.54
2023-04-27T21:06:22.269Z,0.59
2023-04-27T21:09:24.139Z,0.64
2023-04-27T21:12:25.734Z,0.62
2023-04-27T21:15:27.568Z,0.59
2023-04-27T21:18:30.807Z,0.55
2023-04-27T21:21:32.734Z,0.50
2023-04-27T21:24:34.312Z,0.46
2023-04-27T21:27:36.121Z,0.42
2023-04-27T21:30:37.820Z,0.38
2023-04-27T21:33:39.640Z,0.32
2023-04-27T21:36:41.237Z,0.29
2023-04-27T21:39:42.917Z,0.26
2023-04-27T21:42:44.547Z,0.18
2023-04-27T21:45:46.147Z,0.10
2023-04-27T21:48:47.850Z,0.05
2023-04-27T21:51:49.513Z,0.00
2023-04-27T21:54:51.223Z,-0.04
2023-04-27T21:57:52.913Z,-0.07
2023-04-27T22:00:54.692Z,-0.14
2023-04-27T22:03:56.396Z,-0.21
2023-04-27T22:07:18.308Z,-0.26
2023-04-27T22:10:20.121Z,-0.33
2023-04-27T22:13:21.637Z,-0.36
2023-04-27T22:16:23.341Z,-0.36
2023-04-27T22:19:25.137Z,-0.42
2023-04-27T22:22:26.813Z,-0.52
2023-04-27T22:25:28.520Z,-0.56
2023-04-27T22:28:30.097Z,-0.61
2023-04-27T22:31:31.887Z,-0.69
2023-04-27T22:34:33.907Z,-0.74
2023-04-27T22:37:35.954Z,-0.75
2023-04-27T22:40:37.647Z,-0.80
2023-04-27T22:43:39.573Z,-0.85
2023-04-27T22:46:42.775Z,-0.86
2023-04-27T22:49:44.505Z,-0.91
2023-04-27T22:52:46.248Z,-0.94
2023-04-27T22:55:48.292Z,-0.98
2023-04-27T22:58:49.894Z,-0.99
2023-04-27T23:01:51.960Z,-1.01
2023-04-27T23:04:53.563Z,-1.05
2023-04-27T23:07:55.328Z,-1.08
2023-04-27T23:10:57.012Z,-1.09
2023-04-27T23:13:58.744Z,-1.12
2023-04-27T23:17:00.504Z,-1.13
2023-04-27T23:20:03.181Z,-1.16
2023-04-27T23:23:05.871Z,-1.21
2023-04-27T23:26:14.384Z,-1.32
2023-04-27T23:29:16.180Z,-1.45
2023-04-27T23:32:17.954Z,-1.52
2023-04-27T23:35:19.754Z,-1.59
2023-04-27T23:38:21.392Z,-1.60
2023-04-27T23:41:22.990Z,-1.58
2023-04-27T23:44:24.641Z,-1.58
2023-04-27T23:47:26.303Z,-1.55
2023-04-27T23:50:27.921Z,-1.53
2023-04-27T23:53:30.235Z,-1.54
2023-04-27T23:56:31.946Z,-1.57
2023-04-27T23:59:34.676Z,-1.56
